createdAt,value
2017-11-15T00:00:27.184Z,25.02
2017-11-15T00:02:55.464Z,23.52
2017-11-15T00:05:23.732Z,24.75
2017-11-15T00:07:51.279Z,26.83
2017-11-15T00:10:18.827Z,25.67
2017-11-15T00:12:46.368Z,24.73
2017-11-15T00:15:13.873Z,23.70
2017-11-15T00:17:41.370Z,25.15
2017-11-15T00:20:08.920Z,23.40
2017-11-15T00:22:37.402Z,21.17
2017-11-15T00:25:04.914Z,24.83
2017-11-15T00:27:32.432Z,22.73
2017-11-15T00:29:59.976Z,22.73
2017-11-15T00:32:27.480Z,26.17
2017-11-15T00:34:54.985Z,24.27
2017-11-15T00:37:22.513Z,23.75
2017-11-15T00:39:50.037Z,24.92
2017-11-15T00:42:17.546Z,23.80
2017-11-15T00:44:45.820Z,23.08
2017-11-15T00:47:13.340Z,26.83
2017-11-15T00:49:40.855Z,24.20
2017-11-15T00:52:09.117Z,26.40
2017-11-15T00:54:37.402Z,25.73
2017-11-15T00:57:05.712Z,26.37
2017-11-15T00:59:33.232Z,24.90
2017-11-15T01:02:01.496Z,24.65
2017-11-15T01:04:29.008Z,24.73
2017-11-15T01:06:56.504Z,23.73
2017-11-15T01:09:24.011Z,26.48
2017-11-15T01:11:51.524Z,24.52
2017-11-15T01:14:19.024Z,24.63
2017-11-15T01:16:46.524Z,26.30
2017-11-15T01:19:14.024Z,24.05
2017-11-15T01:21:42.295Z,23.45
2017-11-15T01:24:10.565Z,19.17
2017-11-15T01:26:38.828Z,26.02
2017-11-15T01:29:07.120Z,23.30
2017-11-15T01:31:35.380Z,20.10
2017-11-15T01:34:04.389Z,22.35
2017-11-15T01:36:32.659Z,22.20
2017-11-15T01:39:00.929Z,23.67
2017-11-15T01:41:28.424Z,24.30
2017-11-15T01:43:55.924Z,23.75
2017-11-15T01:46:23.424Z,24.45
2017-11-15T01:48:51.689Z,24.17
2017-11-15T01:51:19.981Z,22.73
2017-11-15T01:53:48.248Z,24.92
2017-11-15T01:56:16.514Z,24.05
2017-11-15T01:58:44.012Z,23.83
2017-11-15T02:01:14.414Z,22.73
2017-11-15T02:03:41.932Z,25.70
2017-11-15T02:06:09.446Z,21.90
2017-11-15T02:08:36.961Z,25.10
2017-11-15T02:11:04.477Z,23.40
2017-11-15T02:13:31.981Z,25.62
2017-11-15T02:15:59.532Z,18.30
2017-11-15T02:18:27.050Z,23.10
2017-11-15T02:20:54.544Z,23.27
2017-11-15T02:23:22.057Z,23.42
2017-11-15T02:25:49.580Z,21.58
2017-11-15T02:28:17.077Z,24.17
2017-11-15T02:30:44.720Z,22.90
2017-11-15T02:33:13.005Z,22.42
2017-11-15T02:35:40.518Z,22.42
2017-11-15T02:38:08.024Z,23.40
2017-11-15T02:40:35.536Z,21.70
2017-11-15T02:43:03.053Z,24.05
2017-11-15T02:45:30.562Z,24.17
2017-11-15T02:47:58.112Z,24.08
2017-11-15T02:50:25.625Z,23.05
2017-11-15T02:52:53.176Z,19.67
2017-11-15T02:55:20.688Z,21.08
2017-11-15T02:57:48.196Z,22.67
2017-11-15T03:00:15.717Z,24.70
2017-11-15T03:02:43.984Z,24.30
2017-11-15T03:05:11.490Z,22.25
2017-11-15T03:07:39.033Z,22.00
2017-11-15T03:10:07.321Z,22.58
2017-11-15T03:12:34.822Z,19.75
2017-11-15T03:15:02.320Z,22.83
2017-11-15T03:17:30.597Z,23.45
2017-11-15T03:19:58.875Z,22.45
2017-11-15T03:22:27.146Z,22.75
2017-11-15T03:24:55.433Z,24.02
2017-11-15T03:27:23.692Z,21.33
2017-11-15T03:29:51.189Z,23.23
2017-11-15T03:32:18.700Z,23.48
2017-11-15T03:34:46.207Z,25.48
2017-11-15T03:37:13.705Z,25.65
2017-11-15T03:39:41.201Z,22.75
2017-11-15T03:42:09.477Z,24.02
2017-11-15T03:44:37.882Z,23.38
2017-11-15T03:47:05.381Z,24.45
2017-11-15T03:49:32.888Z,23.27
2017-11-15T03:52:00.388Z,21.73
2017-11-15T03:54:27.896Z,25.95
2017-11-15T03:56:55.442Z,23.38
2017-11-15T03:59:23.708Z,25.27
2017-11-15T04:01:51.216Z,27.00
2017-11-15T04:04:18.739Z,25.70
2017-11-15T04:06:47.004Z,26.10
2017-11-15T04:09:14.508Z,24.60
2017-11-15T04:11:42.021Z,25.23
2017-11-15T04:14:10.293Z,25.73
2017-11-15T04:16:37.796Z,26.55
2017-11-15T04:19:05.309Z,24.48
2017-11-15T04:21:34.316Z,24.80
2017-11-15T04:24:02.582Z,23.92
2017-11-15T04:26:30.077Z,24.08
2017-11-15T04:28:57.616Z,23.75
2017-11-15T04:31:25.882Z,25.05
2017-11-15T04:33:54.147Z,25.85
2017-11-15T04:36:21.644Z,25.00
2017-11-15T04:38:49.144Z,26.85
2017-11-15T04:41:16.657Z,26.40
2017-11-15T04:43:44.156Z,24.60
2017-11-15T04:46:11.657Z,24.58
2017-11-15T04:48:39.979Z,26.17
2017-11-15T04:51:07.517Z,24.75
2017-11-15T04:53:35.016Z,27.15
2017-11-15T04:56:02.524Z,24.67
2017-11-15T04:58:30.043Z,25.45
2017-11-15T05:00:57.536Z,23.52
2017-11-15T05:03:25.043Z,25.42
2017-11-15T05:05:52.547Z,25.62
2017-11-15T05:08:20.816Z,26.42
2017-11-15T05:10:49.094Z,28.83
2017-11-15T05:13:17.399Z,26.20
2017-11-15T05:15:44.912Z,28.10
2017-11-15T05:18:12.410Z,25.30
2017-11-15T05:20:39.924Z,25.08
2017-11-15T05:23:07.420Z,25.10
2017-11-15T05:25:34.933Z,26.23
2017-11-15T05:28:02.433Z,23.67
2017-11-15T05:30:29.949Z,26.42
2017-11-15T05:32:57.459Z,27.92
2017-11-15T05:35:24.968Z,25.08
2017-11-15T05:37:52.481Z,25.85
2017-11-15T05:40:19.988Z,25.50
2017-11-15T05:42:47.504Z,27.15
2017-11-15T05:45:15.027Z,25.42
2017-11-15T05:47:43.292Z,27.20
2017-11-15T05:50:11.561Z,25.30
2017-11-15T05:52:39.839Z,26.10
2017-11-15T05:55:07.347Z,24.40
2017-11-15T05:57:34.850Z,27.45
2017-11-15T06:00:02.344Z,25.30
2017-11-15T06:02:29.850Z,26.90
2017-11-15T06:04:57.368Z,25.77
2017-11-15T06:07:24.908Z,26.00
2017-11-15T06:09:53.229Z,24.80
2017-11-15T06:12:21.469Z,26.50
2017-11-15T06:14:49.747Z,25.70
2017-11-15T06:17:18.004Z,25.52
2017-11-15T06:19:46.319Z,25.85
2017-11-15T06:22:13.873Z,24.73
2017-11-15T06:24:41.344Z,24.70
2017-11-15T06:27:08.925Z,24.65
2017-11-15T06:29:37.173Z,24.50
2017-11-15T06:32:04.935Z,25.05
2017-11-15T06:34:32.461Z,22.52
2017-11-15T06:37:00.101Z,23.48
2017-11-15T06:39:27.613Z,24.58
2017-11-15T06:41:55.452Z,23.35
2017-11-15T06:44:23.739Z,23.52
2017-11-15T06:46:51.253Z,24.48
2017-11-15T06:49:18.764Z,22.30
2017-11-15T06:51:46.264Z,22.60
2017-11-15T06:54:13.801Z,24.63
2017-11-15T06:56:41.299Z,24.40
2017-11-15T06:59:09.677Z,24.37
2017-11-15T07:01:37.181Z,24.52
2017-11-15T07:04:04.692Z,25.50
2017-11-15T07:06:32.194Z,22.87
2017-11-15T07:08:59.704Z,24.95
2017-11-15T07:11:27.221Z,24.23
2017-11-15T07:13:54.728Z,26.90
2017-11-15T07:16:22.228Z,25.05
2017-11-15T07:18:50.156Z,23.80
2017-11-15T07:21:17.674Z,24.45
2017-11-15T07:23:45.230Z,24.52
2017-11-15T07:26:12.729Z,24.00
2017-11-15T07:28:40.276Z,24.73
2017-11-15T07:31:07.846Z,23.90
2017-11-15T07:33:35.405Z,24.50
2017-11-15T07:36:02.913Z,25.70
2017-11-15T07:38:30.440Z,26.20
2017-11-15T07:41:00.165Z,24.10
2017-11-15T07:43:28.435Z,24.98
2017-11-15T07:45:56.713Z,23.12
2017-11-15T07:48:24.977Z,23.30
2017-11-15T07:50:53.244Z,23.62
2017-11-15T07:53:20.749Z,22.33
2017-11-15T07:55:48.249Z,22.58
2017-11-15T07:58:15.760Z,22.02
2017-11-15T08:00:43.261Z,23.40
2017-11-15T08:03:10.752Z,24.95
2017-11-15T08:05:39.041Z,25.70
2017-11-15T08:08:06.537Z,23.17
2017-11-15T08:10:34.164Z,23.25
2017-11-15T08:13:01.672Z,24.67
2017-11-15T08:15:29.172Z,23.52
2017-11-15T08:17:56.695Z,23.75
2017-11-15T08:20:24.188Z,26.00
2017-11-15T08:22:52.462Z,23.33
2017-11-15T08:25:20.765Z,21.92
2017-11-15T08:27:48.286Z,23.00
2017-11-15T08:30:16.557Z,25.05
2017-11-15T08:32:49.634Z,22.40
2017-11-15T08:35:18.029Z,22.35
2017-11-15T08:37:46.292Z,24.83
2017-11-15T08:40:13.792Z,22.13
2017-11-15T08:42:41.294Z,22.33
2017-11-15T08:45:08.822Z,22.48
2017-11-15T08:47:36.326Z,22.00
2017-11-15T08:50:03.864Z,21.10
2017-11-15T08:52:31.367Z,22.50
2017-11-15T08:54:59.636Z,20.40
2017-11-15T08:57:27.904Z,19.92
2017-11-15T08:59:56.225Z,20.25
2017-11-15T09:02:23.740Z,20.58
2017-11-15T09:04:51.280Z,20.77
2017-11-15T09:07:18.788Z,21.10
2017-11-15T09:09:46.304Z,22.77
2017-11-15T09:12:13.818Z,22.25
2017-11-15T09:14:41.333Z,28.00
2017-11-15T09:17:08.831Z,30.00
2017-11-15T09:19:36.333Z,25.65
2017-11-15T09:22:03.847Z,22.17
2017-11-15T09:24:31.356Z,21.58
2017-11-15T09:26:58.941Z,20.65
2017-11-15T09:29:27.206Z,20.85
2017-11-15T09:31:55.469Z,21.25
2017-11-15T09:34:23.740Z,20.65
2017-11-15T09:36:51.270Z,21.08
2017-11-15T09:39:18.764Z,19.85
2017-11-15T09:41:46.289Z,20.95
2017-11-15T09:44:13.805Z,20.00
2017-11-15T09:46:42.060Z,19.98
2017-11-15T09:49:09.567Z,19.62
2017-11-15T09:51:37.084Z,18.20
2017-11-15T09:54:04.614Z,20.45
2017-11-15T09:56:32.110Z,19.95
2017-11-15T09:59:00.393Z,18.90
2017-11-15T10:01:28.705Z,18.23
2017-11-15T10:03:56.442Z,18.73
2017-11-15T10:06:23.948Z,20.90
2017-11-15T10:08:51.465Z,20.23
2017-11-15T10:11:18.977Z,20.98
2017-11-15T10:13:46.490Z,19.77
2017-11-15T10:16:13.989Z,20.02
2017-11-15T10:18:41.485Z,20.48
2017-11-15T10:21:09.748Z,18.75
2017-11-15T10:23:38.014Z,19.08
2017-11-15T10:26:05.513Z,20.00
2017-11-15T10:28:33.036Z,19.85
2017-11-15T10:31:00.534Z,19.83
2017-11-15T10:33:28.052Z,17.70
2017-11-15T10:35:55.564Z,17.98
2017-11-15T10:38:23.065Z,19.02
2017-11-15T10:40:50.576Z,17.95
2017-11-15T10:43:18.077Z,17.55
2017-11-15T10:45:45.577Z,19.98
2017-11-15T10:48:13.093Z,19.30
2017-11-15T10:50:40.617Z,17.62
2017-11-15T10:53:08.130Z,19.35
2017-11-15T10:55:36.922Z,19.05
2017-11-15T10:58:05.203Z,18.17
2017-11-15T11:00:39.388Z,17.50
2017-11-15T11:03:06.977Z,18.27
2017-11-15T11:05:35.240Z,18.05
2017-11-15T11:08:03.506Z,16.87
2017-11-15T11:10:31.036Z,16.27
2017-11-15T11:12:58.533Z,17.55
2017-11-15T11:15:26.796Z,18.23
2017-11-15T11:17:55.060Z,16.62
2017-11-15T11:20:22.585Z,18.33
2017-11-15T11:22:50.089Z,16.05
2017-11-15T11:25:17.584Z,17.08
2017-11-15T11:27:45.095Z,17.52
2017-11-15T11:30:12.604Z,16.48
2017-11-15T11:32:40.104Z,15.15
2017-11-15T11:35:08.484Z,16.27
2017-11-15T11:37:36.086Z,15.15
2017-11-15T11:40:04.368Z,14.90
2017-11-15T11:42:32.633Z,13.88
2017-11-15T11:45:00.913Z,16.08
2017-11-15T11:47:29.180Z,16.80
2017-11-15T11:49:57.452Z,15.60
2017-11-15T11:52:25.766Z,13.40
2017-11-15T11:54:53.261Z,13.73
2017-11-15T11:57:20.773Z,13.65
2017-11-15T11:59:48.398Z,13.77
2017-11-15T12:02:15.921Z,13.60
2017-11-15T12:04:43.441Z,14.32
2017-11-15T12:07:11.706Z,15.18
2017-11-15T12:09:39.982Z,15.68
2017-11-15T12:12:08.253Z,14.82
2017-11-15T12:14:36.545Z,15.60
2017-11-15T12:17:04.870Z,16.45
2017-11-15T12:19:32.389Z,16.02
2017-11-15T12:21:59.889Z,15.27
2017-11-15T12:24:27.393Z,15.05
2017-11-15T12:26:55.693Z,15.90
2017-11-15T12:29:23.205Z,16.75
2017-11-15T12:31:50.726Z,16.33
2017-11-15T12:34:18.280Z,16.73
2017-11-15T12:36:45.797Z,15.88
2017-11-15T12:39:14.121Z,14.23
2017-11-15T12:41:41.634Z,16.07
2017-11-15T12:44:09.921Z,16.65
2017-11-15T12:46:37.445Z,15.60
2017-11-15T12:49:04.949Z,16.30
2017-11-15T12:51:32.497Z,17.20
2017-11-15T12:54:00.784Z,16.73
2017-11-15T12:56:28.288Z,15.27
2017-11-15T12:58:55.794Z,17.50
2017-11-15T13:01:23.552Z,17.67
2017-11-15T13:03:51.820Z,19.03
2017-11-15T13:06:20.093Z,15.80
2017-11-15T13:08:48.376Z,17.10
2017-11-15T13:11:16.661Z,17.40
2017-11-15T13:13:44.929Z,17.90
2017-11-15T13:16:13.224Z,17.03
2017-11-15T13:18:40.725Z,19.63
2017-11-15T13:21:08.224Z,22.23
2017-11-15T13:23:36.508Z,24.57
2017-11-15T13:26:04.021Z,21.00
2017-11-15T13:28:31.520Z,24.50
2017-11-15T13:30:59.804Z,25.90
2017-11-15T13:33:28.113Z,22.43
2017-11-15T13:35:55.633Z,17.43
2017-11-15T13:38:23.900Z,18.60
2017-11-15T13:40:52.190Z,16.93
2017-11-15T13:43:20.460Z,16.80
2017-11-15T13:45:48.766Z,16.60
2017-11-15T13:48:16.264Z,17.33
2017-11-15T13:50:43.765Z,17.60
2017-11-15T13:53:12.037Z,18.63
2017-11-15T13:55:40.298Z,17.23
2017-11-15T13:58:08.564Z,16.57
2017-11-15T14:00:36.076Z,17.20
2017-11-15T14:03:03.616Z,16.37
2017-11-15T14:05:31.117Z,18.70
2017-11-15T14:07:58.634Z,26.77
2017-11-15T14:10:26.153Z,30.20
2017-11-15T14:12:53.705Z,34.90
2017-11-15T14:15:21.464Z,50.00
2017-11-15T14:17:48.969Z,37.53
2017-11-15T14:20:16.630Z,24.10
2017-11-15T14:22:44.901Z,20.33
2017-11-15T14:25:13.173Z,18.87
2017-11-15T14:27:41.465Z,18.70
2017-11-15T14:30:08.981Z,21.23
2017-11-15T14:32:36.497Z,18.05
2017-11-15T14:35:04.022Z,18.50
2017-11-15T14:37:32.313Z,20.77
2017-11-15T14:39:59.831Z,19.75
2017-11-15T14:42:28.133Z,19.90
2017-11-15T14:44:56.420Z,18.33
2017-11-15T14:47:24.736Z,15.68
2017-11-15T14:49:52.245Z,14.90
2017-11-15T14:52:20.509Z,13.57
2017-11-15T14:54:48.026Z,15.68
2017-11-15T14:57:15.524Z,14.45
2017-11-15T14:59:44.668Z,14.70
2017-11-15T15:02:12.176Z,16.05
2017-11-15T15:04:39.697Z,13.85
2017-11-15T15:07:07.192Z,14.90
2017-11-15T15:09:34.689Z,17.37
2017-11-15T15:12:02.195Z,18.05
2017-11-15T15:14:29.696Z,17.15
2017-11-15T15:16:57.211Z,19.37
2017-11-15T15:19:24.720Z,17.37
2017-11-15T15:21:52.238Z,17.50
2017-11-15T15:24:19.760Z,15.27
2017-11-15T15:26:47.258Z,20.40
2017-11-15T15:29:14.772Z,25.05
2017-11-15T15:31:42.275Z,23.77
2017-11-15T15:34:09.776Z,19.35
2017-11-15T15:36:37.325Z,18.50
2017-11-15T15:39:05.590Z,19.80
2017-11-15T15:41:33.850Z,20.00
2017-11-15T15:44:01.369Z,21.87
2017-11-15T15:46:28.893Z,21.70
2017-11-15T15:48:56.401Z,23.75
2017-11-15T15:51:23.901Z,23.35
2017-11-15T15:53:52.161Z,22.58
2017-11-15T15:56:19.664Z,18.60
2017-11-15T15:58:47.160Z,18.75
2017-11-15T16:01:14.730Z,20.52
2017-11-15T16:03:42.236Z,19.35
2017-11-15T16:06:09.802Z,25.10
2017-11-15T16:08:37.305Z,27.70
2017-11-15T16:11:04.845Z,41.80
2017-11-15T16:13:32.344Z,36.20
2017-11-15T16:16:00.624Z,25.33
2017-11-15T16:18:28.916Z,23.33
2017-11-15T16:20:56.420Z,23.67
2017-11-15T16:23:23.945Z,25.45
2017-11-15T16:25:51.449Z,21.95
2017-11-15T16:28:18.953Z,20.35
2017-11-15T16:30:46.453Z,17.20
2017-11-15T16:33:13.957Z,15.63
2017-11-15T16:35:41.461Z,16.40
2017-11-15T16:38:08.973Z,15.85
2017-11-15T16:40:36.481Z,16.58
2017-11-15T16:43:04.020Z,18.40
2017-11-15T16:45:31.573Z,23.33
2017-11-15T16:47:59.814Z,27.20
2017-11-15T16:50:28.077Z,26.27
2017-11-15T16:52:55.584Z,24.75
2017-11-15T16:55:23.102Z,21.23
2017-11-15T16:57:51.369Z,19.05
2017-11-15T17:00:18.885Z,17.55
2017-11-15T17:02:46.608Z,21.65
2017-11-15T17:05:14.872Z,23.25
2017-11-15T17:07:43.140Z,19.83
2017-11-15T17:10:10.640Z,18.75
2017-11-15T17:12:38.191Z,21.12
2017-11-15T17:15:05.945Z,23.50
2017-11-15T17:17:34.217Z,23.87
2017-11-15T17:20:02.500Z,24.85
2017-11-15T17:22:30.779Z,21.55
2017-11-15T17:24:59.041Z,21.27
2017-11-15T17:27:27.308Z,19.83
2017-11-15T17:29:55.632Z,18.30
2017-11-15T17:32:23.133Z,18.12
2017-11-15T17:34:50.637Z,23.33
2017-11-15T17:37:18.133Z,27.20
2017-11-15T17:39:45.642Z,28.15
2017-11-15T17:42:13.923Z,29.27
2017-11-15T17:44:41.430Z,28.33
2017-11-15T17:47:08.971Z,21.80
2017-11-15T17:49:36.477Z,19.83
2017-11-15T17:52:04.760Z,18.35
2017-11-15T17:54:33.071Z,21.40
2017-11-15T17:57:00.572Z,19.58
2017-11-15T17:59:28.073Z,20.15
2017-11-15T18:01:55.568Z,20.25
2017-11-15T18:04:23.076Z,20.20
2017-11-15T18:06:51.353Z,26.62
2017-11-15T18:09:19.628Z,27.30
2017-11-15T18:11:47.893Z,21.92
2017-11-15T18:14:16.196Z,22.80
2017-11-15T18:16:43.712Z,21.00
2017-11-15T18:19:11.216Z,19.17
2017-11-15T18:21:38.765Z,17.30
2017-11-15T18:24:07.046Z,19.08
2017-11-15T18:26:34.548Z,20.80
2017-11-15T18:29:02.065Z,20.05
2017-11-15T18:31:29.581Z,18.73
2017-11-15T18:33:57.086Z,17.52
2017-11-15T18:36:24.596Z,20.20
2017-11-15T18:38:52.141Z,22.08
2017-11-15T18:41:19.666Z,19.70
2017-11-15T18:43:47.205Z,17.80
2017-11-15T18:46:15.472Z,19.48
2017-11-15T18:48:43.732Z,19.45
2017-11-15T18:51:11.249Z,21.73
2017-11-15T18:53:38.748Z,19.83
2017-11-15T18:56:06.292Z,17.77
2017-11-15T18:58:33.789Z,17.50
2017-11-15T19:01:02.056Z,21.50
2017-11-15T19:03:30.913Z,22.23
2017-11-15T19:05:58.452Z,20.83
2017-11-15T19:08:25.944Z,29.15
2017-11-15T19:10:54.988Z,24.70
2017-11-15T19:13:22.496Z,23.10
2017-11-15T19:15:49.997Z,26.67
2017-11-15T19:18:17.559Z,28.05
2017-11-15T19:20:45.097Z,22.05
2017-11-15T19:23:13.361Z,24.87
2017-11-15T19:25:40.865Z,23.10
2017-11-15T19:28:08.360Z,19.45
2017-11-15T19:30:35.879Z,20.67
2017-11-15T19:33:03.392Z,18.45
2017-11-15T19:35:30.919Z,17.90
2017-11-15T19:37:58.464Z,18.00
2017-11-15T19:40:26.006Z,18.50
2017-11-15T19:42:53.508Z,17.00
2017-11-15T19:45:21.059Z,16.08
2017-11-15T19:47:48.560Z,18.00
2017-11-15T19:50:16.826Z,16.77
2017-11-15T19:52:45.091Z,17.92
2017-11-15T19:55:12.605Z,17.00
2017-11-15T19:57:40.121Z,17.37
2017-11-15T20:00:08.393Z,18.00
2017-11-15T20:02:35.894Z,19.55
2017-11-15T20:05:03.413Z,19.48
2017-11-15T20:07:31.682Z,17.90
2017-11-15T20:09:59.183Z,16.80
2017-11-15T20:12:26.684Z,16.35
2017-11-15T20:14:54.240Z,16.87
2017-11-15T20:17:21.743Z,15.18
2017-11-15T20:19:49.249Z,15.18
2017-11-15T20:22:16.788Z,17.05
2017-11-15T20:24:44.295Z,15.25
2017-11-15T20:27:11.804Z,15.45
2017-11-15T20:29:39.356Z,16.37
2017-11-15T20:32:06.874Z,15.85
2017-11-15T20:34:35.159Z,21.42
2017-11-15T20:37:03.430Z,16.45
2017-11-15T20:39:31.734Z,19.70
2017-11-15T20:41:59.288Z,19.95
2017-11-15T20:44:26.793Z,16.60
2017-11-15T20:46:54.293Z,23.77
2017-11-15T20:49:22.562Z,24.45
2017-11-15T20:51:50.841Z,25.02
2017-11-15T20:54:19.111Z,21.60
2017-11-15T20:56:47.390Z,21.52
2017-11-15T20:59:15.692Z,22.37
2017-11-15T21:01:43.192Z,24.15
2017-11-15T21:04:10.709Z,25.90
2017-11-15T21:06:38.205Z,20.48
2017-11-15T21:09:05.726Z,16.30
2017-11-15T21:11:33.236Z,15.90
2017-11-15T21:14:00.751Z,15.60
2017-11-15T21:16:28.275Z,14.50
2017-11-15T21:18:56.540Z,16.30
2017-11-15T21:21:24.065Z,24.48
2017-11-15T21:23:51.597Z,26.48
2017-11-15T21:26:19.121Z,24.45
2017-11-15T21:28:46.628Z,18.75
2017-11-15T21:31:14.148Z,33.65
2017-11-15T21:33:42.453Z,33.45
2017-11-15T21:36:09.953Z,33.35
2017-11-15T21:38:37.453Z,28.33
2017-11-15T21:41:05.764Z,24.77
2017-11-15T21:43:33.284Z,22.15
2017-11-15T21:46:01.553Z,19.00
2017-11-15T21:48:29.828Z,18.48
2017-11-15T21:50:58.116Z,18.05
2017-11-15T21:53:26.428Z,19.52
2017-11-15T21:55:53.931Z,19.62
2017-11-15T21:58:21.433Z,19.10
2017-11-15T22:00:48.957Z,21.58
2017-11-15T22:03:17.220Z,18.92
2017-11-15T22:05:44.751Z,25.15
2017-11-15T22:08:12.268Z,27.67
2017-11-15T22:10:39.920Z,32.58
2017-11-15T22:13:08.185Z,36.67
2017-11-15T22:15:36.453Z,38.88
2017-11-15T22:18:03.953Z,35.22
2017-11-15T22:20:31.461Z,26.17
2017-11-15T22:22:58.968Z,20.60
2017-11-15T22:25:26.509Z,20.00
2017-11-15T22:27:54.779Z,19.30
2017-11-15T22:30:23.079Z,18.50
2017-11-15T22:32:50.594Z,20.25
2017-11-15T22:35:18.104Z,18.20
2017-11-15T22:37:45.613Z,19.90
2017-11-15T22:40:13.124Z,18.87
2017-11-15T22:42:40.620Z,18.30
2017-11-15T22:45:28.949Z,15.77
2017-11-15T22:47:56.468Z,17.58
2017-11-15T22:50:24.115Z,16.08
2017-11-15T22:52:52.384Z,17.05
2017-11-15T22:55:20.650Z,16.35
2017-11-15T22:57:48.168Z,18.80
2017-11-15T23:00:15.665Z,19.27
2017-11-15T23:02:43.221Z,19.75
2017-11-15T23:05:10.721Z,17.17
2017-11-15T23:07:38.233Z,17.27
2017-11-15T23:10:06.024Z,20.10
2017-11-15T23:12:34.301Z,18.87
2017-11-15T23:15:02.576Z,19.27
2017-11-15T23:17:30.836Z,18.30
2017-11-15T23:19:58.364Z,17.55
2017-11-15T23:22:25.865Z,16.50
2017-11-15T23:24:54.282Z,18.40
2017-11-15T23:27:21.799Z,17.48
2017-11-15T23:29:49.664Z,17.10
2017-11-15T23:32:17.176Z,14.43
2017-11-15T23:34:44.684Z,16.20
2017-11-15T23:37:12.191Z,16.02
2017-11-15T23:39:39.701Z,18.83
2017-11-15T23:42:07.984Z,18.20
2017-11-15T23:44:36.263Z,18.00
2017-11-15T23:47:04.528Z,17.20
2017-11-15T23:49:32.412Z,17.25
2017-11-15T23:52:00.676Z,18.85
2017-11-15T23:54:29.001Z,18.12
2017-11-15T23:56:56.496Z,17.50
2017-11-15T23:59:24.026Z,17.08
